createdAt,value
2019-05-10T00:02:13.195Z,11.4
2019-05-10T00:12:26.926Z,11.4
2019-05-10T00:22:40.411Z,11.4
2019-05-10T00:33:25.984Z,11.3
2019-05-10T00:43:39.223Z,11.3
2019-05-10T00:54:25.826Z,11.3
2019-05-10T01:04:39.160Z,11.3
2019-05-10T01:14:50.469Z,11.3
2019-05-10T01:25:03.797Z,11.2
2019-05-10T01:35:17.838Z,11.1
2019-05-10T01:45:31.197Z,11.0
2019-05-10T01:56:15.774Z,10.7
2019-05-10T02:06:29.225Z,10.7
2019-05-10T02:16:40.443Z,10.6
2019-05-10T02:26:53.690Z,10.5
2019-05-10T02:37:39.139Z,10.4
2019-05-10T02:48:24.374Z,10.3
2019-05-10T02:58:35.493Z,10.3
2019-05-10T03:08:49.804Z,10.3
2019-05-10T03:19:03.859Z,10.3
2019-05-10T03:29:16.939Z,10.3
2019-05-10T03:39:28.238Z,10.3
2019-05-10T03:49:39.621Z,10.3
2019-05-10T03:59:52.804Z,10.3
2019-05-10T04:10:06.360Z,10.3
2019-05-10T04:20:17.509Z,10.3
2019-05-10T04:30:31.542Z,10.3
2019-05-10T04:40:39.875Z,10.2
2019-05-10T04:50:51.175Z,10.2
2019-05-10T05:04:21.075Z,10.3
2019-05-10T05:14:34.643Z,10.3
2019-05-10T05:24:48.153Z,10.4
2019-05-10T05:35:02.328Z,10.4
2019-05-10T05:45:13.387Z,10.4
2019-05-10T05:55:30.383Z,10.5
2019-05-10T06:05:37.946Z,10.5
2019-05-10T06:16:25.690Z,10.8
2019-05-10T06:26:38.500Z,10.8
2019-05-10T06:36:52.006Z,10.9
2019-05-10T06:47:41.785Z,11.2
2019-05-10T06:57:50.382Z,11.2
2019-05-10T07:08:43.793Z,11.7
2019-05-10T07:18:47.316Z,11.7
2019-05-10T07:28:59.331Z,11.8
2019-05-10T07:39:10.911Z,11.6
2019-05-10T07:49:24.109Z,11.5
2019-05-10T07:59:49.485Z,11.4
2019-05-10T08:24:18.759Z,11.3
2019-05-10T08:34:35.691Z,11.5
2019-05-10T08:44:43.420Z,11.6
2019-05-10T08:55:32.075Z,12.1
2019-05-10T09:06:19.181Z,12.6
2019-05-10T09:17:04.744Z,13.1
2019-05-10T09:42:52.357Z,13.8
2019-05-10T09:53:39.696Z,14.4
2019-05-10T10:04:28.098Z,14.3
2019-05-10T10:14:39.467Z,14.3
2019-05-10T10:24:54.573Z,14.2
2019-05-10T10:35:37.676Z,14.2
2019-05-10T10:45:48.224Z,14.2
2019-05-10T10:56:03.408Z,14.6
2019-05-10T11:06:16.572Z,15.1
2019-05-10T11:17:03.249Z,16.2
2019-05-10T11:27:17.350Z,16.2
2019-05-10T11:38:06.486Z,18.1
2019-05-10T11:48:14.730Z,18.1
2019-05-10T11:58:26.109Z,18.5
2019-05-10T12:08:41.695Z,18.7
2019-05-10T12:19:05.372Z,18.6
2019-05-10T12:29:11.869Z,18.9
2019-05-10T12:39:16.935Z,19.5
2019-05-10T12:49:31.532Z,20.2
2019-05-10T12:59:41.524Z,20.8
2019-05-10T13:25:35.794Z,21.0
2019-05-10T13:35:50.702Z,21.0
2019-05-10T13:46:01.255Z,20.9
2019-05-10T13:56:15.373Z,20.7
2019-05-10T14:07:57.222Z,20.4
2019-05-10T15:01:46.565Z,20.2
2019-05-10T15:27:21.494Z,19.8
2019-05-10T15:38:04.373Z,19.0
2019-05-10T15:48:51.962Z,18.6
2019-05-10T15:59:05.217Z,18.6
2019-05-10T16:50:54.064Z,17.4
2019-05-10T17:01:08.517Z,17.2
2019-05-10T19:03:21.680Z,14.6
2019-05-10T20:00:46.022Z,13.3
2019-05-10T20:11:31.849Z,12.8
2019-05-10T22:51:50.815Z,9.0
2019-05-10T23:02:36.083Z,8.9
2019-05-10T23:13:23.506Z,8.8
2019-05-10T23:23:36.978Z,8.8
2019-05-10T23:33:50.780Z,8.8
2019-05-10T23:44:04.305Z,8.7
2019-05-10T23:54:51.108Z,8.7
